Главная страница
METAR-TAF:

METAR-TAF

Аэропорты :

Каракас, Венесуэла

широта: 10-36N, долгота: 066-59W, высота над уровнем моря: 43 м

Текущие метеонаблюдения

Эта сводка был подготовлена 35 минут назад, в 22:00 UTC
Штиль
Температура 26°C
Влажность 89%
Давление 1012 hPa
Видимость: 7000 м
Сплошная облачность на высоте 1600 фута
сильный морось, сильный морось

METAR: SVMI 182200Z 00000KT 7000 +DZ OVC016 26/24 Q1012 +DZ

Время: 18:35 (22:35 UTC)

Прогноз

Эта сводка был подготовлена 12 часа и 35 минут назад, в 10:00 UTC
Прогноз действительный с 18-го 12 UTC до 19-го 12 UTC
Ветер 5 Узел от восточный
Видимость 10 км и более
небольшая облачность на высоте 1600 фута
Отдельные облака на высоте 10000 фута
временами
С 18-го 13 UTC до 18-го 17 UTC
Ветер 5 Узел от восточно-юго-восточный
Отдельные облака на высоте 1600 фута

TAF: SVMI 181000Z 1812/1912 09005KT 9999 FEW016 SCT100 TX32/16Z TN24/10Z TEMPO 1813/1817 11005KT SCT016

Метеонаблюдения и прогнозы для более 4000 аэропортов (сводки METAR и TAF).

Имеющиеся станции представлены на карте желтыми и красными точками.

Чтобы увидеть название станции, наведите на нее мышь.

Затем щелкните, чтобы увидеть метеонаблюдения и метеопрогнозы.

Управление картой: чтобы увеличить масштаб, щелкните зеленые кнопки с черным крестиком; чтобы уменьшить масштаб, щелкните зеленую кнопку с тире; для просмотра соседних карт щелкайте зеленые стрелки.


METAR-TAF: